EJU432 EGKK-EKCH
Flight info
| Callsign | EJU432 |
|---|---|
| Flight time | 1h 19m |
| Altitude | 37000 |
| Route | FRANE M604 PAAVO Q295 SOMVA DCT MAVAS DCT DOSUR DCT TALSA P729 TUDLO |
| Aircraft | A20N/M-SDE2E3FGHIRWXY/LB1 |
Departure
| Time | 2026-04-26 17:23 |
|---|---|
| Airport | London Gatwick Airport (EGKK) |
Arrival
| Time | 2026-04-26 18:42 |
|---|---|
| Airport | Copenhagen Kastrup Airport (EKCH) |
| Time | Latitude | Longitude | Altitude | Speed | Heading |
|---|---|---|---|---|---|
| 2026-04-26 16:49 | 51.15601 | -0.17566 | 195 ft | 0 kts | 331° |
| 2026-04-26 17:01 | 51.15590 | -0.17556 | 195 ft | 2 kts | 330° |
| 2026-04-26 17:01 | 51.15577 | -0.17545 | 195 ft | 2 kts | 331° |
| 2026-04-26 17:01 | 51.15564 | -0.17533 | 194 ft | 2 kts | 330° |
| 2026-04-26 17:02 | 51.15556 | -0.17526 | 194 ft | 2 kts | 330° |
| 2026-04-26 17:02 | 51.15545 | -0.17509 | 194 ft | 2 kts | 296° |
| 2026-04-26 17:02 | 51.15541 | -0.17486 | 194 ft | 2 kts | 270° |
| 2026-04-26 17:02 | 51.15541 | -0.17473 | 194 ft | 1 kts | 256° |
| 2026-04-26 17:03 | 51.15543 | -0.17464 | 194 ft | 0 kts | 256° |
| 2026-04-26 17:06 | 51.15542 | -0.17471 | 194 ft | 1 kts | 256° |
| 2026-04-26 17:06 | 51.15536 | -0.17514 | 194 ft | 6 kts | 258° |
| 2026-04-26 17:06 | 51.15527 | -0.17588 | 195 ft | 6 kts | 258° |
| 2026-04-26 17:07 | 51.15519 | -0.17643 | 196 ft | 4 kts | 258° |
| 2026-04-26 17:07 | 51.15509 | -0.17713 | 195 ft | 9 kts | 256° |
| 2026-04-26 17:07 | 51.15492 | -0.17838 | 193 ft | 12 kts | 258° |
| 2026-04-26 17:07 | 51.15475 | -0.17961 | 193 ft | 8 kts | 257° |
| 2026-04-26 17:08 | 51.15465 | -0.18033 | 193 ft | 6 kts | 258° |
| 2026-04-26 17:08 | 51.15456 | -0.18102 | 193 ft | 6 kts | 259° |
| 2026-04-26 17:08 | 51.15431 | -0.18150 | 193 ft | 6 kts | 199° |
| 2026-04-26 17:08 | 51.15389 | -0.18147 | 193 ft | 6 kts | 170° |
| 2026-04-26 17:09 | 51.15360 | -0.18138 | 193 ft | 0 kts | 167° |
| 2026-04-26 17:12 | 51.15359 | -0.18137 | 193 ft | 0 kts | 167° |
| 2026-04-26 17:12 | 51.15351 | -0.18134 | 193 ft | 2 kts | 167° |
| 2026-04-26 17:13 | 51.15316 | -0.18121 | 193 ft | 2 kts | 167° |
| 2026-04-26 17:13 | 51.15293 | -0.18113 | 194 ft | 4 kts | 168° |
| 2026-04-26 17:13 | 51.15207 | -0.18118 | 194 ft | 8 kts | 237° |
| 2026-04-26 17:14 | 51.15189 | -0.18219 | 194 ft | 10 kts | 259° |
| 2026-04-26 17:14 | 51.15163 | -0.18446 | 196 ft | 11 kts | 260° |
| 2026-04-26 17:14 | 51.15148 | -0.18578 | 196 ft | 12 kts | 258° |
| 2026-04-26 17:15 | 51.15113 | -0.18837 | 196 ft | 11 kts | 257° |
| 2026-04-26 17:15 | 51.15095 | -0.18964 | 196 ft | 12 kts | 257° |
| 2026-04-26 17:15 | 51.15075 | -0.19108 | 195 ft | 14 kts | 258° |
| 2026-04-26 17:16 | 51.15054 | -0.19265 | 194 ft | 15 kts | 258° |
| 2026-04-26 17:16 | 51.15029 | -0.19440 | 193 ft | 16 kts | 258° |
| 2026-04-26 17:16 | 51.15006 | -0.19610 | 193 ft | 14 kts | 257° |
| 2026-04-26 17:16 | 51.14983 | -0.19759 | 195 ft | 13 kts | 256° |
| 2026-04-26 17:17 | 51.14963 | -0.19900 | 195 ft | 13 kts | 258° |
| 2026-04-26 17:17 | 51.14945 | -0.20049 | 196 ft | 13 kts | 261° |
| 2026-04-26 17:17 | 51.14934 | -0.20155 | 196 ft | 7 kts | 259° |
| 2026-04-26 17:17 | 51.14925 | -0.20219 | 197 ft | 5 kts | 256° |
| 2026-04-26 17:18 | 51.14914 | -0.20283 | 198 ft | 6 kts | 254° |
| 2026-04-26 17:18 | 51.14899 | -0.20370 | 197 ft | 9 kts | 258° |
| 2026-04-26 17:18 | 51.14885 | -0.20480 | 197 ft | 10 kts | 259° |
| 2026-04-26 17:18 | 51.14869 | -0.20596 | 196 ft | 9 kts | 249° |
| 2026-04-26 17:19 | 51.14769 | -0.20704 | 196 ft | 8 kts | 196° |
| 2026-04-26 17:19 | 51.14710 | -0.20719 | 196 ft | 7 kts | 167° |
| 2026-04-26 17:19 | 51.14699 | -0.20703 | 196 ft | 0 kts | 124° |
| 2026-04-26 17:21 | 51.14698 | -0.20700 | 196 ft | 1 kts | 124° |
| 2026-04-26 17:21 | 51.14685 | -0.20655 | 196 ft | 9 kts | 110° |
| 2026-04-26 17:21 | 51.14658 | -0.20522 | 196 ft | 14 kts | 107° |
| 2026-04-26 17:22 | 51.14635 | -0.20350 | 197 ft | 19 kts | 86° |
| 2026-04-26 17:22 | 51.14700 | -0.19858 | 194 ft | 82 kts | 78° |
| 2026-04-26 17:22 | 51.14870 | -0.18598 | 198 ft | 147 kts | 78° |
| 2026-04-26 17:22 | 51.15090 | -0.16940 | 709 ft | 157 kts | 78° |
| 2026-04-26 17:23 | 51.15317 | -0.15271 | 1424 ft | 157 kts | 77° |
| 2026-04-26 17:23 | 51.15569 | -0.13516 | 1901 ft | 171 kts | 77° |
| 2026-04-26 17:23 | 51.15844 | -0.11580 | 2351 ft | 189 kts | 77° |
| 2026-04-26 17:23 | 51.16143 | -0.09452 | 2812 ft | 206 kts | 76° |
| 2026-04-26 17:24 | 51.16470 | -0.07112 | 3188 ft | 231 kts | 77° |
| 2026-04-26 17:24 | 51.16776 | -0.04508 | 3710 ft | 250 kts | 82° |
| 2026-04-26 17:24 | 51.16882 | -0.01673 | 4382 ft | 262 kts | 89° |
| 2026-04-26 17:24 | 51.16843 | 0.01241 | 5243 ft | 267 kts | 91° |
| 2026-04-26 17:25 | 51.16783 | 0.04159 | 6095 ft | 271 kts | 91° |
| 2026-04-26 17:25 | 51.16721 | 0.07170 | 6962 ft | 276 kts | 91° |
| 2026-04-26 17:25 | 51.16659 | 0.10220 | 7810 ft | 280 kts | 91° |
| 2026-04-26 17:25 | 51.16599 | 0.13310 | 8637 ft | 285 kts | 91° |
| 2026-04-26 17:26 | 51.16763 | 0.16448 | 9407 ft | 290 kts | 70° |
| 2026-04-26 17:26 | 51.17760 | 0.19217 | 10216 ft | 293 kts | 51° |
| 2026-04-26 17:26 | 51.19068 | 0.21708 | 10994 ft | 297 kts | 48° |
| 2026-04-26 17:26 | 51.20416 | 0.24227 | 11840 ft | 302 kts | 49° |
| 2026-04-26 17:27 | 51.21731 | 0.26796 | 12529 ft | 307 kts | 51° |
| 2026-04-26 17:27 | 51.23058 | 0.29499 | 13309 ft | 311 kts | 51° |
| 2026-04-26 17:27 | 51.24350 | 0.32203 | 14060 ft | 314 kts | 52° |
| 2026-04-26 17:27 | 51.25661 | 0.34994 | 14804 ft | 318 kts | 52° |
| 2026-04-26 17:28 | 51.26982 | 0.37831 | 15544 ft | 322 kts | 52° |
| 2026-04-26 17:28 | 51.28320 | 0.40717 | 16222 ft | 327 kts | 52° |
| 2026-04-26 17:28 | 51.29675 | 0.43644 | 16889 ft | 331 kts | 52° |
| 2026-04-26 17:28 | 51.31044 | 0.46609 | 17546 ft | 334 kts | 52° |
| 2026-04-26 17:29 | 51.32414 | 0.49579 | 18219 ft | 338 kts | 52° |
| 2026-04-26 17:29 | 51.33360 | 0.51632 | 18653 ft | 340 kts | 52° |
| 2026-04-26 17:29 | 51.35226 | 0.55689 | 19481 ft | 345 kts | 52° |
| 2026-04-26 17:29 | 51.36646 | 0.58776 | 20120 ft | 348 kts | 51° |
| 2026-04-26 17:30 | 51.38275 | 0.61629 | 20706 ft | 349 kts | 35° |
| 2026-04-26 17:30 | 51.40355 | 0.63520 | 21223 ft | 350 kts | 17° |
| 2026-04-26 17:30 | 51.42731 | 0.64563 | 21493 ft | 361 kts | 9° |
| 2026-04-26 17:30 | 51.45185 | 0.65419 | 21866 ft | 369 kts | 9° |
| 2026-04-26 17:31 | 51.47730 | 0.66309 | 22405 ft | 373 kts | 10° |
| 2026-04-26 17:31 | 51.50239 | 0.67219 | 22968 ft | 376 kts | 11° |
| 2026-04-26 17:31 | 51.52791 | 0.68246 | 23510 ft | 379 kts | 14° |
| 2026-04-26 17:31 | 51.55312 | 0.69477 | 24060 ft | 383 kts | 15° |
| 2026-04-26 17:32 | 51.57853 | 0.70761 | 24591 ft | 385 kts | 15° |
| 2026-04-26 17:32 | 51.60374 | 0.72061 | 25105 ft | 388 kts | 15° |
| 2026-04-26 17:32 | 51.62965 | 0.73403 | 25633 ft | 391 kts | 15° |
| 2026-04-26 17:32 | 51.65553 | 0.74739 | 26143 ft | 394 kts | 15° |
| 2026-04-26 17:33 | 51.68148 | 0.76074 | 26621 ft | 396 kts | 14° |
| 2026-04-26 17:33 | 51.70782 | 0.77425 | 27087 ft | 399 kts | 15° |
| 2026-04-26 17:33 | 51.73411 | 0.78772 | 27532 ft | 402 kts | 14° |
| 2026-04-26 17:34 | 51.78761 | 0.81520 | 28401 ft | 408 kts | 14° |
| 2026-04-26 17:34 | 51.81473 | 0.82915 | 28826 ft | 411 kts | 14° |
| 2026-04-26 17:34 | 51.84183 | 0.84374 | 29240 ft | 415 kts | 19° |
| 2026-04-26 17:34 | 51.86725 | 0.86681 | 29614 ft | 424 kts | 34° |
| 2026-04-26 17:35 | 51.88843 | 0.90023 | 29993 ft | 432 kts | 50° |
| 2026-04-26 17:35 | 51.90386 | 0.94215 | 30326 ft | 439 kts | 66° |
| 2026-04-26 17:35 | 51.91204 | 0.98898 | 30666 ft | 443 kts | 80° |
| 2026-04-26 17:35 | 51.91684 | 1.03814 | 31066 ft | 445 kts | 77° |
| 2026-04-26 17:36 | 51.92532 | 1.08612 | 31420 ft | 445 kts | 69° |
| 2026-04-26 17:36 | 51.93605 | 1.13296 | 31908 ft | 443 kts | 67° |
| 2026-04-26 17:36 | 51.94727 | 1.17909 | 32428 ft | 440 kts | 66° |
| 2026-04-26 17:36 | 51.95858 | 1.22450 | 32881 ft | 438 kts | 66° |
| 2026-04-26 17:37 | 51.97002 | 1.26994 | 33306 ft | 437 kts | 66° |
| 2026-04-26 17:37 | 51.98150 | 1.31548 | 33750 ft | 435 kts | 66° |
| 2026-04-26 17:37 | 51.99279 | 1.36025 | 34402 ft | 427 kts | 66° |
| 2026-04-26 17:38 | 52.01493 | 1.44821 | 35110 ft | 424 kts | 65° |
| 2026-04-26 17:38 | 52.02604 | 1.49249 | 35275 ft | 427 kts | 65° |
| 2026-04-26 17:38 | 52.03722 | 1.53707 | 35445 ft | 429 kts | 65° |
| 2026-04-26 17:38 | 52.04847 | 1.58209 | 35666 ft | 430 kts | 65° |
| 2026-04-26 17:39 | 52.05960 | 1.62673 | 35928 ft | 429 kts | 65° |
| 2026-04-26 17:39 | 52.07074 | 1.67145 | 36184 ft | 428 kts | 66° |
| 2026-04-26 17:39 | 52.08181 | 1.71604 | 36417 ft | 427 kts | 66° |
| 2026-04-26 17:39 | 52.09278 | 1.76025 | 36624 ft | 427 kts | 66° |
| 2026-04-26 17:40 | 52.10385 | 1.80499 | 36823 ft | 428 kts | 66° |
| 2026-04-26 17:40 | 52.10760 | 1.82016 | 36891 ft | 428 kts | 66° |
| 2026-04-26 17:40 | 52.12598 | 1.89461 | 37234 ft | 430 kts | 66° |
| 2026-04-26 17:40 | 52.13717 | 1.94003 | 37301 ft | 434 kts | 66° |
| 2026-04-26 17:41 | 52.15966 | 2.03171 | 37312 ft | 444 kts | 66° |
| 2026-04-26 17:41 | 52.18266 | 2.12591 | 37318 ft | 453 kts | 66° |
| 2026-04-26 17:42 | 52.20602 | 2.22203 | 37321 ft | 462 kts | 66° |
| 2026-04-26 17:42 | 52.22949 | 2.31904 | 37319 ft | 468 kts | 66° |
| 2026-04-26 17:43 | 52.25331 | 2.41794 | 37318 ft | 472 kts | 66° |
| 2026-04-26 17:43 | 52.27709 | 2.51719 | 37315 ft | 472 kts | 66° |
| 2026-04-26 17:44 | 52.30092 | 2.61730 | 37315 ft | 473 kts | 66° |
| 2026-04-26 17:44 | 52.32091 | 2.71912 | 37314 ft | 475 kts | 71° |
| 2026-04-26 17:45 | 52.33902 | 2.82282 | 37316 ft | 475 kts | 72° |
| 2026-04-26 17:45 | 52.35693 | 2.92594 | 37312 ft | 474 kts | 71° |
| 2026-04-26 17:46 | 52.37498 | 3.02904 | 37318 ft | 474 kts | 70° |
| 2026-04-26 17:46 | 52.39767 | 3.12934 | 37328 ft | 471 kts | 63° |
| 2026-04-26 17:47 | 52.42215 | 3.20872 | 37331 ft | 468 kts | 57° |
| 2026-04-26 17:47 | 52.46397 | 3.31147 | 37332 ft | 465 kts | 50° |
| 2026-04-26 17:48 | 52.50259 | 3.39580 | 37328 ft | 464 kts | 49° |
| 2026-04-26 17:48 | 52.54113 | 3.48017 | 37326 ft | 465 kts | 49° |
| 2026-04-26 17:49 | 52.57978 | 3.56535 | 37326 ft | 465 kts | 49° |
| 2026-04-26 17:49 | 52.61808 | 3.65021 | 37327 ft | 465 kts | 50° |
| 2026-04-26 17:50 | 52.65647 | 3.73557 | 37325 ft | 465 kts | 50° |
| 2026-04-26 17:50 | 52.69466 | 3.82080 | 37320 ft | 466 kts | 50° |
| 2026-04-26 17:51 | 52.73297 | 3.90662 | 37319 ft | 466 kts | 50° |
| 2026-04-26 17:51 | 52.77123 | 3.99264 | 37320 ft | 465 kts | 50° |
| 2026-04-26 17:52 | 52.80917 | 4.07816 | 37311 ft | 465 kts | 50° |
| 2026-04-26 17:52 | 52.84708 | 4.16398 | 37311 ft | 465 kts | 50° |
| 2026-04-26 17:53 | 52.88504 | 4.25011 | 37311 ft | 465 kts | 50° |
| 2026-04-26 17:54 | 52.94201 | 4.37998 | 37315 ft | 466 kts | 50° |
| 2026-04-26 17:54 | 52.97989 | 4.46672 | 37316 ft | 466 kts | 50° |
| 2026-04-26 17:55 | 53.01774 | 4.55397 | 37320 ft | 466 kts | 50° |
| 2026-04-26 17:55 | 53.05454 | 4.64208 | 37315 ft | 466 kts | 51° |
| 2026-04-26 17:56 | 53.09095 | 4.73004 | 37324 ft | 466 kts | 51° |
| 2026-04-26 17:57 | 53.16415 | 4.90733 | 37330 ft | 467 kts | 51° |
| 2026-04-26 17:57 | 53.20074 | 4.99640 | 37316 ft | 468 kts | 51° |
| 2026-04-26 17:58 | 53.27402 | 5.17558 | 37330 ft | 468 kts | 51° |
| 2026-04-26 17:59 | 53.32861 | 5.30988 | 37338 ft | 468 kts | 51° |
| 2026-04-26 17:59 | 53.36482 | 5.39936 | 37332 ft | 468 kts | 51° |
| 2026-04-26 18:00 | 53.40114 | 5.48947 | 37334 ft | 467 kts | 51° |
| 2026-04-26 18:00 | 53.43727 | 5.57944 | 37333 ft | 466 kts | 51° |
| 2026-04-26 18:01 | 53.47321 | 5.66921 | 37334 ft | 465 kts | 52° |
| 2026-04-26 18:01 | 53.50894 | 5.75880 | 37340 ft | 466 kts | 52° |
| 2026-04-26 18:02 | 53.53279 | 5.81875 | 37334 ft | 466 kts | 52° |
| 2026-04-26 18:02 | 53.58050 | 5.93914 | 37341 ft | 467 kts | 52° |
| 2026-04-26 18:03 | 53.61641 | 6.03016 | 37342 ft | 467 kts | 52° |
| 2026-04-26 18:03 | 53.65218 | 6.12113 | 37341 ft | 467 kts | 52° |
| 2026-04-26 18:04 | 53.68774 | 6.21194 | 37345 ft | 467 kts | 52° |
| 2026-04-26 18:05 | 53.74081 | 6.34803 | 37341 ft | 466 kts | 52° |
| 2026-04-26 18:05 | 53.77631 | 6.43945 | 37342 ft | 466 kts | 52° |
| 2026-04-26 18:06 | 53.81154 | 6.53057 | 37340 ft | 466 kts | 52° |
| 2026-04-26 18:06 | 53.84691 | 6.62235 | 37345 ft | 465 kts | 52° |
| 2026-04-26 18:07 | 53.88193 | 6.71356 | 37346 ft | 466 kts | 53° |
| 2026-04-26 18:07 | 53.91698 | 6.80516 | 37345 ft | 464 kts | 53° |
| 2026-04-26 18:08 | 53.95187 | 6.89669 | 37340 ft | 464 kts | 53° |
| 2026-04-26 18:08 | 53.98667 | 6.98836 | 37342 ft | 463 kts | 52° |
| 2026-04-26 18:09 | 54.02138 | 7.08012 | 37343 ft | 463 kts | 52° |
| 2026-04-26 18:09 | 54.05624 | 7.17255 | 37338 ft | 463 kts | 52° |
| 2026-04-26 18:10 | 54.09067 | 7.26419 | 37337 ft | 463 kts | 52° |
| 2026-04-26 18:10 | 54.12517 | 7.35639 | 37331 ft | 464 kts | 52° |
| 2026-04-26 18:11 | 54.15975 | 7.44912 | 37325 ft | 464 kts | 52° |
| 2026-04-26 18:11 | 54.19407 | 7.54157 | 37324 ft | 463 kts | 52° |
| 2026-04-26 18:12 | 54.22852 | 7.63464 | 37325 ft | 463 kts | 52° |
| 2026-04-26 18:12 | 54.26273 | 7.72743 | 37325 ft | 464 kts | 53° |
| 2026-04-26 18:13 | 54.29682 | 7.82027 | 37325 ft | 464 kts | 53° |
| 2026-04-26 18:13 | 54.33109 | 7.91388 | 37322 ft | 464 kts | 53° |
| 2026-04-26 18:14 | 54.36525 | 8.00762 | 37320 ft | 464 kts | 53° |
| 2026-04-26 18:14 | 54.39920 | 8.10114 | 37320 ft | 464 kts | 53° |
| 2026-04-26 18:15 | 54.43306 | 8.19472 | 37315 ft | 464 kts | 53° |
| 2026-04-26 18:15 | 54.46709 | 8.28911 | 37311 ft | 465 kts | 53° |
| 2026-04-26 18:16 | 54.50082 | 8.38308 | 37313 ft | 465 kts | 53° |
| 2026-04-26 18:16 | 54.55147 | 8.52484 | 37313 ft | 464 kts | 53° |
| 2026-04-26 18:17 | 54.58503 | 8.61920 | 37311 ft | 465 kts | 53° |
| 2026-04-26 18:17 | 54.61841 | 8.71347 | 37310 ft | 465 kts | 54° |
| 2026-04-26 18:18 | 54.65202 | 8.80868 | 37303 ft | 465 kts | 54° |
| 2026-04-26 18:18 | 54.68520 | 8.90420 | 37304 ft | 467 kts | 56° |
| 2026-04-26 18:19 | 54.71490 | 9.00454 | 37298 ft | 469 kts | 59° |
| 2026-04-26 18:19 | 54.74379 | 9.10505 | 37292 ft | 469 kts | 58° |
| 2026-04-26 18:20 | 54.77298 | 9.20540 | 37289 ft | 469 kts | 58° |
| 2026-04-26 18:20 | 54.79727 | 9.28888 | 37289 ft | 469 kts | 58° |
| 2026-04-26 18:21 | 54.83100 | 9.40634 | 37285 ft | 469 kts | 58° |
| 2026-04-26 18:21 | 54.85974 | 9.50711 | 37280 ft | 468 kts | 58° |
| 2026-04-26 18:22 | 54.88850 | 9.60840 | 37286 ft | 466 kts | 58° |
| 2026-04-26 18:22 | 54.90257 | 9.65815 | 37149 ft | 459 kts | 59° |
| 2026-04-26 18:22 | 54.91655 | 9.70772 | 36561 ft | 458 kts | 59° |
| 2026-04-26 18:23 | 54.93041 | 9.75680 | 35853 ft | 462 kts | 59° |
| 2026-04-26 18:23 | 54.94454 | 9.80692 | 35104 ft | 466 kts | 59° |
| 2026-04-26 18:23 | 54.95884 | 9.85776 | 34322 ft | 469 kts | 59° |
| 2026-04-26 18:23 | 54.97295 | 9.90801 | 33530 ft | 470 kts | 59° |
| 2026-04-26 18:24 | 54.98718 | 9.95889 | 32738 ft | 470 kts | 59° |
| 2026-04-26 18:24 | 55.00151 | 10.01022 | 31919 ft | 471 kts | 59° |
| 2026-04-26 18:24 | 55.01555 | 10.06066 | 31160 ft | 470 kts | 59° |
| 2026-04-26 18:24 | 55.02972 | 10.11178 | 30603 ft | 464 kts | 59° |
| 2026-04-26 18:25 | 55.04347 | 10.16149 | 30030 ft | 459 kts | 59° |
| 2026-04-26 18:25 | 55.05719 | 10.21112 | 29427 ft | 454 kts | 59° |
| 2026-04-26 18:25 | 55.07090 | 10.26075 | 28597 ft | 455 kts | 59° |
| 2026-04-26 18:25 | 55.08460 | 10.31038 | 27568 ft | 460 kts | 59° |
| 2026-04-26 18:26 | 55.09834 | 10.36033 | 26834 ft | 457 kts | 59° |
| 2026-04-26 18:26 | 55.11185 | 10.40964 | 26229 ft | 452 kts | 59° |
| 2026-04-26 18:26 | 55.12533 | 10.45902 | 25608 ft | 447 kts | 59° |
| 2026-04-26 18:26 | 55.13841 | 10.50701 | 24994 ft | 443 kts | 59° |
| 2026-04-26 18:27 | 55.15158 | 10.55542 | 24386 ft | 440 kts | 59° |
| 2026-04-26 18:27 | 55.16457 | 10.60328 | 23805 ft | 435 kts | 59° |
| 2026-04-26 18:27 | 55.17738 | 10.65062 | 23234 ft | 432 kts | 60° |
| 2026-04-26 18:27 | 55.18882 | 10.69893 | 22678 ft | 432 kts | 67° |
| 2026-04-26 18:28 | 55.19703 | 10.74911 | 21835 ft | 438 kts | 71° |
| 2026-04-26 18:28 | 55.20454 | 10.80103 | 20836 ft | 445 kts | 72° |
| 2026-04-26 18:28 | 55.21200 | 10.85296 | 20099 ft | 443 kts | 72° |
| 2026-04-26 18:28 | 55.21962 | 10.90492 | 19467 ft | 439 kts | 71° |
| 2026-04-26 18:29 | 55.22726 | 10.95602 | 18641 ft | 440 kts | 71° |
| 2026-04-26 18:29 | 55.23513 | 11.00789 | 17834 ft | 439 kts | 71° |
| 2026-04-26 18:29 | 55.24295 | 11.05921 | 17182 ft | 434 kts | 71° |
| 2026-04-26 18:29 | 55.25061 | 11.10939 | 16551 ft | 430 kts | 71° |
| 2026-04-26 18:30 | 55.25830 | 11.15979 | 15906 ft | 425 kts | 71° |
| 2026-04-26 18:30 | 55.26581 | 11.20911 | 15267 ft | 421 kts | 70° |
| 2026-04-26 18:30 | 55.27333 | 11.25852 | 14636 ft | 416 kts | 70° |
| 2026-04-26 18:30 | 55.28065 | 11.30671 | 14004 ft | 412 kts | 70° |
| 2026-04-26 18:31 | 55.28794 | 11.35487 | 13384 ft | 408 kts | 70° |
| 2026-04-26 18:31 | 55.29511 | 11.40226 | 12778 ft | 403 kts | 71° |
| 2026-04-26 18:31 | 55.30219 | 11.44924 | 12170 ft | 399 kts | 71° |
| 2026-04-26 18:31 | 55.30924 | 11.49617 | 11569 ft | 394 kts | 71° |
| 2026-04-26 18:32 | 55.31607 | 11.54184 | 10970 ft | 390 kts | 71° |
| 2026-04-26 18:32 | 55.32285 | 11.58715 | 10357 ft | 386 kts | 71° |
| 2026-04-26 18:32 | 55.32960 | 11.63254 | 9760 ft | 382 kts | 71° |
| 2026-04-26 18:32 | 55.33624 | 11.67716 | 9130 ft | 378 kts | 72° |
| 2026-04-26 18:33 | 55.34282 | 11.72152 | 8500 ft | 375 kts | 72° |
| 2026-04-26 18:33 | 55.34935 | 11.76568 | 7864 ft | 372 kts | 73° |
| 2026-04-26 18:33 | 55.35574 | 11.80906 | 7240 ft | 368 kts | 73° |
| 2026-04-26 18:33 | 55.36208 | 11.85226 | 6608 ft | 365 kts | 73° |
| 2026-04-26 18:34 | 55.36842 | 11.89552 | 5790 ft | 367 kts | 73° |
| 2026-04-26 18:34 | 55.37469 | 11.93852 | 5226 ft | 361 kts | 73° |
| 2026-04-26 18:34 | 55.38068 | 11.97987 | 4997 ft | 346 kts | 73° |
| 2026-04-26 18:34 | 55.38641 | 12.01964 | 4988 ft | 325 kts | 73° |
| 2026-04-26 18:35 | 55.39177 | 12.05688 | 4987 ft | 306 kts | 73° |
| 2026-04-26 18:35 | 55.39689 | 12.09250 | 4987 ft | 298 kts | 73° |
| 2026-04-26 18:35 | 55.40205 | 12.12817 | 4912 ft | 302 kts | 73° |
| 2026-04-26 18:35 | 55.40713 | 12.16342 | 4585 ft | 300 kts | 73° |
| 2026-04-26 18:36 | 55.41229 | 12.19917 | 3981 ft | 305 kts | 74° |
| 2026-04-26 18:36 | 55.41747 | 12.23518 | 3338 ft | 304 kts | 74° |
| 2026-04-26 18:36 | 55.42250 | 12.27051 | 3012 ft | 285 kts | 74° |
| 2026-04-26 18:36 | 55.42701 | 12.30255 | 2987 ft | 258 kts | 74° |
| 2026-04-26 18:37 | 55.43118 | 12.33207 | 2978 ft | 241 kts | 73° |
| 2026-04-26 18:37 | 55.43720 | 12.35842 | 2975 ft | 222 kts | 55° |
| 2026-04-26 18:37 | 55.44620 | 12.37873 | 2971 ft | 205 kts | 42° |
| 2026-04-26 18:37 | 55.45648 | 12.39514 | 2976 ft | 198 kts | 36° |
| 2026-04-26 18:38 | 55.46721 | 12.41054 | 2980 ft | 198 kts | 36° |
| 2026-04-26 18:38 | 55.47784 | 12.42610 | 2949 ft | 199 kts | 37° |
| 2026-04-26 18:38 | 55.48809 | 12.44167 | 2830 ft | 192 kts | 37° |
| 2026-04-26 18:38 | 55.49802 | 12.45710 | 2561 ft | 189 kts | 38° |
| 2026-04-26 18:39 | 55.50779 | 12.47238 | 2268 ft | 186 kts | 38° |
| 2026-04-26 18:39 | 55.51746 | 12.48750 | 1991 ft | 183 kts | 38° |
| 2026-04-26 18:39 | 55.52678 | 12.50201 | 1733 ft | 177 kts | 39° |
| 2026-04-26 18:39 | 55.53571 | 12.51592 | 1508 ft | 163 kts | 39° |
| 2026-04-26 18:40 | 55.54380 | 12.52850 | 1301 ft | 148 kts | 39° |
| 2026-04-26 18:40 | 55.55110 | 12.53985 | 1085 ft | 134 kts | 39° |
| 2026-04-26 18:40 | 55.55792 | 12.55059 | 870 ft | 129 kts | 39° |
| 2026-04-26 18:40 | 55.56470 | 12.56118 | 731 ft | 130 kts | 39° |
| 2026-04-26 18:41 | 55.57142 | 12.57146 | 577 ft | 129 kts | 39° |
| 2026-04-26 18:41 | 55.57822 | 12.58193 | 419 ft | 129 kts | 39° |
| 2026-04-26 18:41 | 55.58498 | 12.59238 | 240 ft | 131 kts | 39° |
| 2026-04-26 18:41 | 55.59187 | 12.60301 | 67 ft | 132 kts | 40° |
| 2026-04-26 18:42 | 55.59846 | 12.61322 | 12 ft | 109 kts | 41° |
| 2026-04-26 18:42 | 55.60287 | 12.61999 | 14 ft | 60 kts | 43° |
| 2026-04-26 18:42 | 55.60506 | 12.62281 | 15 ft | 28 kts | 20° |
| 2026-04-26 18:42 | 55.60687 | 12.62365 | 16 ft | 25 kts | 13° |
| 2026-04-26 18:43 | 55.60841 | 12.62472 | 18 ft | 22 kts | 38° |
| 2026-04-26 18:43 | 55.60952 | 12.62649 | 21 ft | 20 kts | 39° |
| 2026-04-26 18:43 | 55.61053 | 12.62811 | 23 ft | 18 kts | 43° |
| 2026-04-26 18:43 | 55.61151 | 12.62967 | 22 ft | 19 kts | 39° |
| 2026-04-26 18:44 | 55.61256 | 12.63124 | 20 ft | 19 kts | 41° |
| 2026-04-26 18:44 | 55.61356 | 12.63279 | 22 ft | 18 kts | 40° |
| 2026-04-26 18:44 | 55.61456 | 12.63428 | 22 ft | 18 kts | 38° |
| 2026-04-26 18:44 | 55.61553 | 12.63578 | 23 ft | 18 kts | 42° |
| 2026-04-26 18:45 | 55.61655 | 12.63740 | 24 ft | 21 kts | 41° |
| 2026-04-26 18:45 | 55.61779 | 12.63931 | 22 ft | 25 kts | 40° |
| 2026-04-26 18:45 | 55.61921 | 12.64111 | 18 ft | 25 kts | 26° |
| 2026-04-26 18:45 | 55.62077 | 12.64245 | 15 ft | 25 kts | 26° |
| 2026-04-26 18:46 | 55.62206 | 12.64352 | 15 ft | 18 kts | 25° |
| 2026-04-26 18:46 | 55.62274 | 12.64505 | 15 ft | 11 kts | 66° |
| 2026-04-26 18:46 | 55.62298 | 12.64605 | 15 ft | 0 kts | 66° |
| 2026-04-26 18:46 | 55.62299 | 12.64607 | 15 ft | 1 kts | 66° |
| 2026-04-26 18:47 | 55.62313 | 12.64668 | 15 ft | 9 kts | 69° |
| 2026-04-26 18:47 | 55.62341 | 12.64781 | 15 ft | 9 kts | 65° |
| 2026-04-26 18:47 | 55.62342 | 12.64886 | 16 ft | 8 kts | 116° |
| 2026-04-26 18:47 | 55.62311 | 12.64977 | 18 ft | 9 kts | 122° |
| 2026-04-26 18:48 | 55.62275 | 12.65080 | 17 ft | 10 kts | 111° |
| 2026-04-26 18:48 | 55.62287 | 12.65195 | 18 ft | 9 kts | 72° |
| 2026-04-26 18:48 | 55.62297 | 12.65302 | 18 ft | 8 kts | 55° |
| 2026-04-26 18:48 | 55.62351 | 12.65329 | 18 ft | 8 kts | 2° |
| 2026-04-26 18:49 | 55.62420 | 12.65335 | 19 ft | 9 kts | 24° |
| 2026-04-26 18:49 | 55.62440 | 12.65440 | 19 ft | 9 kts | 88° |
| 2026-04-26 18:49 | 55.62466 | 12.65533 | 18 ft | 8 kts | 23° |
| 2026-04-26 18:49 | 55.62515 | 12.65572 | 18 ft | 3 kts | 24° |
| 2026-04-26 18:50 | 55.62520 | 12.65576 | 18 ft | 0 kts | 24° |